sensor_id;sensor_type;location;lat;lon;timestamp;P1;durP1;ratioP1;P2;durP2;ratioP2
15266;SDS011;7735;49.144;8.668;2023-10-13T00:00:46;8.70;;;5.93;;
15266;SDS011;7735;49.144;8.668;2023-10-13T00:03:13;10.07;;;5.33;;
15266;SDS011;7735;49.144;8.668;2023-10-13T00:05:41;8.90;;;5.97;;
15266;SDS011;7735;49.144;8.668;2023-10-13T00:08:10;9.73;;;5.93;;
15266;SDS011;7735;49.144;8.668;2023-10-13T00:10:36;12.53;;;5.90;;
15266;SDS011;7735;49.144;8.668;2023-10-13T00:13:03;8.77;;;5.37;;
15266;SDS011;7735;49.144;8.668;2023-10-13T00:15:38;9.47;;;5.70;;
15266;SDS011;7735;49.144;8.668;2023-10-13T00:18:10;10.27;;;5.37;;
15266;SDS011;7735;49.144;8.668;2023-10-13T00:20:39;8.57;;;5.80;;
15266;SDS011;7735;49.144;8.668;2023-10-13T00:23:14;12.67;;;5.27;;
15266;SDS011;7735;49.144;8.668;2023-10-13T00:25:45;9.77;;;5.00;;
15266;SDS011;7735;49.144;8.668;2023-10-13T00:28:15;11.30;;;6.37;;
15266;SDS011;7735;49.144;8.668;2023-10-13T00:30:48;12.63;;;5.60;;
15266;SDS011;7735;49.144;8.668;2023-10-13T00:33:17;9.90;;;5.80;;
15266;SDS011;7735;49.144;8.668;2023-10-13T00:35:45;13.37;;;5.90;;
15266;SDS011;7735;49.144;8.668;2023-10-13T00:38:14;8.43;;;5.00;;
15266;SDS011;7735;49.144;8.668;2023-10-13T00:40:43;9.60;;;5.30;;
15266;SDS011;7735;49.144;8.668;2023-10-13T00:43:16;8.20;;;4.97;;
15266;SDS011;7735;49.144;8.668;2023-10-13T00:46:04;8.50;;;4.77;;
15266;SDS011;7735;49.144;8.668;2023-10-13T00:48:37;8.60;;;5.40;;
15266;SDS011;7735;49.144;8.668;2023-10-13T00:51:08;11.13;;;5.27;;
15266;SDS011;7735;49.144;8.668;2023-10-13T00:53:45;9.67;;;5.47;;
15266;SDS011;7735;49.144;8.668;2023-10-13T00:56:13;11.03;;;5.60;;
15266;SDS011;7735;49.144;8.668;2023-10-13T00:58:47;10.00;;;5.70;;
15266;SDS011;7735;49.144;8.668;2023-10-13T01:01:15;8.20;;;5.03;;
15266;SDS011;7735;49.144;8.668;2023-10-13T01:03:49;10.30;;;5.60;;
15266;SDS011;7735;49.144;8.668;2023-10-13T01:06:20;13.87;;;5.07;;
15266;SDS011;7735;49.144;8.668;2023-10-13T01:08:57;10.37;;;5.67;;
15266;SDS011;7735;49.144;8.668;2023-10-13T01:11:25;10.33;;;5.63;;
15266;SDS011;7735;49.144;8.668;2023-10-13T01:13:54;10.93;;;5.70;;
15266;SDS011;7735;49.144;8.668;2023-10-13T01:16:20;10.70;;;5.37;;
15266;SDS011;7735;49.144;8.668;2023-10-13T01:18:48;11.80;;;5.60;;
15266;SDS011;7735;49.144;8.668;2023-10-13T01:21:15;11.90;;;5.50;;
15266;SDS011;7735;49.144;8.668;2023-10-13T01:23:47;10.23;;;5.80;;
15266;SDS011;7735;49.144;8.668;2023-10-13T01:26:13;9.97;;;5.50;;
15266;SDS011;7735;49.144;8.668;2023-10-13T01:28:49;10.27;;;5.27;;
15266;SDS011;7735;49.144;8.668;2023-10-13T01:31:15;11.00;;;5.27;;
15266;SDS011;7735;49.144;8.668;2023-10-13T01:33:50;8.97;;;5.43;;
15266;SDS011;7735;49.144;8.668;2023-10-13T01:36:22;10.53;;;5.77;;
15266;SDS011;7735;49.144;8.668;2023-10-13T01:38:59;8.80;;;5.43;;
15266;SDS011;7735;49.144;8.668;2023-10-13T01:41:29;12.90;;;5.23;;
15266;SDS011;7735;49.144;8.668;2023-10-13T01:43:56;7.80;;;5.10;;
15266;SDS011;7735;49.144;8.668;2023-10-13T01:46:29;9.53;;;4.93;;
15266;SDS011;7735;49.144;8.668;2023-10-13T01:48:55;9.00;;;4.97;;
15266;SDS011;7735;49.144;8.668;2023-10-13T01:51:23;12.80;;;6.00;;
15266;SDS011;7735;49.144;8.668;2023-10-13T01:53:52;9.70;;;4.93;;
15266;SDS011;7735;49.144;8.668;2023-10-13T01:56:22;8.33;;;5.37;;
15266;SDS011;7735;49.144;8.668;2023-10-13T01:58:50;9.97;;;5.53;;
15266;SDS011;7735;49.144;8.668;2023-10-13T02:01:15;7.00;;;3.87;;
15266;SDS011;7735;49.144;8.668;2023-10-13T02:03:51;6.90;;;4.23;;
15266;SDS011;7735;49.144;8.668;2023-10-13T02:06:26;7.80;;;3.93;;
15266;SDS011;7735;49.144;8.668;2023-10-13T02:08:57;7.33;;;3.83;;
15266;SDS011;7735;49.144;8.668;2023-10-13T02:11:29;8.90;;;3.40;;
15266;SDS011;7735;49.144;8.668;2023-10-13T02:13:56;6.73;;;2.93;;
15266;SDS011;7735;49.144;8.668;2023-10-13T02:16:22;6.70;;;3.20;;
15266;SDS011;7735;49.144;8.668;2023-10-13T02:18:50;6.17;;;3.20;;
15266;SDS011;7735;49.144;8.668;2023-10-13T02:21:16;5.47;;;2.93;;
15266;SDS011;7735;49.144;8.668;2023-10-13T02:23:43;6.27;;;3.30;;
15266;SDS011;7735;49.144;8.668;2023-10-13T02:26:10;7.47;;;3.30;;
15266;SDS011;7735;49.144;8.668;2023-10-13T02:28:39;7.93;;;3.90;;
15266;SDS011;7735;49.144;8.668;2023-10-13T02:31:04;6.73;;;3.60;;
15266;SDS011;7735;49.144;8.668;2023-10-13T02:33:32;8.27;;;4.27;;
15266;SDS011;7735;49.144;8.668;2023-10-13T02:35:58;7.37;;;4.33;;
15266;SDS011;7735;49.144;8.668;2023-10-13T02:38:29;9.67;;;4.60;;
15266;SDS011;7735;49.144;8.668;2023-10-13T02:41:09;7.03;;;4.20;;
15266;SDS011;7735;49.144;8.668;2023-10-13T02:43:37;7.57;;;4.37;;
15266;SDS011;7735;49.144;8.668;2023-10-13T02:46:04;10.87;;;4.47;;
15266;SDS011;7735;49.144;8.668;2023-10-13T02:48:31;8.17;;;4.57;;
15266;SDS011;7735;49.144;8.668;2023-10-13T02:51:05;10.07;;;4.43;;
15266;SDS011;7735;49.144;8.668;2023-10-13T02:53:40;8.73;;;4.80;;
15266;SDS011;7735;49.144;8.668;2023-10-13T02:56:06;8.00;;;4.50;;
15266;SDS011;7735;49.144;8.668;2023-10-13T02:58:39;7.17;;;4.50;;
15266;SDS011;7735;49.144;8.668;2023-10-13T03:01:10;6.80;;;4.10;;
15266;SDS011;7735;49.144;8.668;2023-10-13T03:03:44;7.30;;;4.33;;
15266;SDS011;7735;49.144;8.668;2023-10-13T03:06:13;7.67;;;4.20;;
15266;SDS011;7735;49.144;8.668;2023-10-13T03:08:40;7.10;;;4.90;;
15266;SDS011;7735;49.144;8.668;2023-10-13T03:11:08;7.30;;;5.00;;
15266;SDS011;7735;49.144;8.668;2023-10-13T03:13:34;10.63;;;4.80;;
15266;SDS011;7735;49.144;8.668;2023-10-13T03:16:10;7.10;;;4.40;;
15266;SDS011;7735;49.144;8.668;2023-10-13T03:18:36;9.83;;;4.43;;
15266;SDS011;7735;49.144;8.668;2023-10-13T03:21:03;13.47;;;5.33;;
15266;SDS011;7735;49.144;8.668;2023-10-13T03:23:28;6.53;;;4.50;;
15266;SDS011;7735;49.144;8.668;2023-10-13T03:26:08;11.83;;;4.77;;
15266;SDS011;7735;49.144;8.668;2023-10-13T03:28:35;11.03;;;4.80;;
15266;SDS011;7735;49.144;8.668;2023-10-13T03:31:04;10.70;;;4.83;;
15266;SDS011;7735;49.144;8.668;2023-10-13T03:33:32;11.37;;;4.93;;
15266;SDS011;7735;49.144;8.668;2023-10-13T03:35:59;11.37;;;6.43;;
15266;SDS011;7735;49.144;8.668;2023-10-13T03:38:31;9.00;;;4.73;;
15266;SDS011;7735;49.144;8.668;2023-10-13T03:41:01;10.50;;;4.50;;
15266;SDS011;7735;49.144;8.668;2023-10-13T03:43:37;9.17;;;4.33;;
15266;SDS011;7735;49.144;8.668;2023-10-13T03:46:12;9.00;;;4.33;;
15266;SDS011;7735;49.144;8.668;2023-10-13T03:48:38;9.00;;;5.47;;
15266;SDS011;7735;49.144;8.668;2023-10-13T03:51:17;10.43;;;5.03;;
15266;SDS011;7735;49.144;8.668;2023-10-13T03:53:44;10.63;;;5.37;;
15266;SDS011;7735;49.144;8.668;2023-10-13T03:56:17;12.17;;;6.30;;
15266;SDS011;7735;49.144;8.668;2023-10-13T03:58:51;9.80;;;5.07;;
15266;SDS011;7735;49.144;8.668;2023-10-13T04:01:20;11.17;;;6.00;;
15266;SDS011;7735;49.144;8.668;2023-10-13T04:03:56;8.43;;;4.70;;
15266;SDS011;7735;49.144;8.668;2023-10-13T04:06:28;11.17;;;5.60;;
15266;SDS011;7735;49.144;8.668;2023-10-13T04:09:16;12.17;;;5.03;;
15266;SDS011;7735;49.144;8.668;2023-10-13T04:12:01;9.37;;;5.10;;
15266;SDS011;7735;49.144;8.668;2023-10-13T04:15:06;14.03;;;6.00;;
15266;SDS011;7735;49.144;8.668;2023-10-13T04:17:48;12.57;;;5.47;;
15266;SDS011;7735;49.144;8.668;2023-10-13T04:20:16;8.53;;;5.33;;
15266;SDS011;7735;49.144;8.668;2023-10-13T04:23:03;12.23;;;5.33;;
15266;SDS011;7735;49.144;8.668;2023-10-13T04:25:50;13.13;;;6.67;;
15266;SDS011;7735;49.144;8.668;2023-10-13T04:28:46;9.83;;;5.10;;
15266;SDS011;7735;49.144;8.668;2023-10-13T04:31:24;9.97;;;5.53;;
15266;SDS011;7735;49.144;8.668;2023-10-13T04:34:11;9.17;;;5.57;;
15266;SDS011;7735;49.144;8.668;2023-10-13T04:36:44;8.30;;;5.40;;
15266;SDS011;7735;49.144;8.668;2023-10-13T04:39:11;8.83;;;5.23;;
15266;SDS011;7735;49.144;8.668;2023-10-13T04:41:48;7.67;;;4.90;;
15266;SDS011;7735;49.144;8.668;2023-10-13T04:44:23;9.73;;;4.87;;
15266;SDS011;7735;49.144;8.668;2023-10-13T04:47:04;8.57;;;5.83;;
15266;SDS011;7735;49.144;8.668;2023-10-13T04:49:37;11.73;;;6.20;;
15266;SDS011;7735;49.144;8.668;2023-10-13T04:52:17;19.20;;;8.53;;
15266;SDS011;7735;49.144;8.668;2023-10-13T04:55:12;11.20;;;5.67;;
15266;SDS011;7735;49.144;8.668;2023-10-13T04:58:02;14.57;;;5.30;;
15266;SDS011;7735;49.144;8.668;2023-10-13T05:00:39;9.70;;;5.70;;
15266;SDS011;7735;49.144;8.668;2023-10-13T05:03:21;9.37;;;5.50;;
15266;SDS011;7735;49.144;8.668;2023-10-13T05:06:19;11.60;;;5.00;;
15266;SDS011;7735;49.144;8.668;2023-10-13T05:09:03;7.00;;;4.77;;
15266;SDS011;7735;49.144;8.668;2023-10-13T05:11:47;8.97;;;5.27;;
15266;SDS011;7735;49.144;8.668;2023-10-13T05:14:31;11.60;;;4.87;;
15266;SDS011;7735;49.144;8.668;2023-10-13T05:17:14;8.67;;;4.53;;
15266;SDS011;7735;49.144;8.668;2023-10-13T05:20:00;10.50;;;5.40;;
15266;SDS011;7735;49.144;8.668;2023-10-13T05:22:45;8.97;;;4.87;;
15266;SDS011;7735;49.144;8.668;2023-10-13T05:25:34;9.73;;;5.70;;
15266;SDS011;7735;49.144;8.668;2023-10-13T05:28:18;11.63;;;5.70;;
15266;SDS011;7735;49.144;8.668;2023-10-13T05:31:02;11.83;;;5.90;;
15266;SDS011;7735;49.144;8.668;2023-10-13T05:33:48;8.93;;;5.70;;
15266;SDS011;7735;49.144;8.668;2023-10-13T05:36:32;12.80;;;5.90;;
15266;SDS011;7735;49.144;8.668;2023-10-13T05:39:18;14.27;;;5.20;;
15266;SDS011;7735;49.144;8.668;2023-10-13T05:42:02;8.37;;;5.70;;
15266;SDS011;7735;49.144;8.668;2023-10-13T05:44:46;10.53;;;6.30;;
15266;SDS011;7735;49.144;8.668;2023-10-13T05:47:42;8.07;;;5.37;;
15266;SDS011;7735;49.144;8.668;2023-10-13T05:50:18;10.47;;;5.13;;
15266;SDS011;7735;49.144;8.668;2023-10-13T05:53:03;12.70;;;6.60;;
15266;SDS011;7735;49.144;8.668;2023-10-13T05:55:48;9.80;;;5.67;;
15266;SDS011;7735;49.144;8.668;2023-10-13T05:58:32;10.30;;;5.70;;
15266;SDS011;7735;49.144;8.668;2023-10-13T06:01:15;11.70;;;5.60;;
15266;SDS011;7735;49.144;8.668;2023-10-13T06:03:59;7.60;;;5.47;;
15266;SDS011;7735;49.144;8.668;2023-10-13T06:06:43;12.83;;;5.20;;
15266;SDS011;7735;49.144;8.668;2023-10-13T06:09:27;9.97;;;5.03;;
15266;SDS011;7735;49.144;8.668;2023-10-13T06:12:12;13.60;;;5.90;;
15266;SDS011;7735;49.144;8.668;2023-10-13T06:14:56;10.23;;;4.50;;
15266;SDS011;7735;49.144;8.668;2023-10-13T06:17:40;7.07;;;4.90;;
15266;SDS011;7735;49.144;8.668;2023-10-13T06:20:24;9.07;;;4.57;;
15266;SDS011;7735;49.144;8.668;2023-10-13T06:23:08;8.93;;;5.07;;
15266;SDS011;7735;49.144;8.668;2023-10-13T06:25:52;9.83;;;4.60;;
15266;SDS011;7735;49.144;8.668;2023-10-13T06:28:38;11.43;;;6.77;;
15266;SDS011;7735;49.144;8.668;2023-10-13T06:31:08;12.60;;;5.63;;
15266;SDS011;7735;49.144;8.668;2023-10-13T06:33:40;11.33;;;6.20;;
15266;SDS011;7735;49.144;8.668;2023-10-13T06:36:10;10.93;;;6.07;;
15266;SDS011;7735;49.144;8.668;2023-10-13T06:38:37;16.37;;;11.57;;
15266;SDS011;7735;49.144;8.668;2023-10-13T06:41:04;13.40;;;8.50;;
15266;SDS011;7735;49.144;8.668;2023-10-13T06:43:31;14.73;;;7.30;;
15266;SDS011;7735;49.144;8.668;2023-10-13T06:46:05;11.73;;;6.77;;
15266;SDS011;7735;49.144;8.668;2023-10-13T06:48:37;11.60;;;5.17;;
15266;SDS011;7735;49.144;8.668;2023-10-13T06:51:05;11.23;;;5.83;;
15266;SDS011;7735;49.144;8.668;2023-10-13T06:53:42;9.43;;;5.80;;
15266;SDS011;7735;49.144;8.668;2023-10-13T06:56:12;10.43;;;5.30;;
15266;SDS011;7735;49.144;8.668;2023-10-13T06:58:43;8.43;;;5.47;;
15266;SDS011;7735;49.144;8.668;2023-10-13T07:01:13;9.20;;;5.47;;
15266;SDS011;7735;49.144;8.668;2023-10-13T07:03:46;8.33;;;5.60;;
15266;SDS011;7735;49.144;8.668;2023-10-13T07:06:17;12.40;;;5.27;;
15266;SDS011;7735;49.144;8.668;2023-10-13T07:08:44;8.83;;;5.03;;
15266;SDS011;7735;49.144;8.668;2023-10-13T07:11:16;9.53;;;5.13;;
15266;SDS011;7735;49.144;8.668;2023-10-13T07:13:47;8.07;;;5.00;;
15266;SDS011;7735;49.144;8.668;2023-10-13T07:16:18;9.13;;;4.87;;
15266;SDS011;7735;49.144;8.668;2023-10-13T07:18:45;10.37;;;5.57;;
15266;SDS011;7735;49.144;8.668;2023-10-13T07:21:18;11.40;;;5.43;;
15266;SDS011;7735;49.144;8.668;2023-10-13T07:23:49;10.40;;;4.63;;
15266;SDS011;7735;49.144;8.668;2023-10-13T07:26:26;12.07;;;6.27;;
15266;SDS011;7735;49.144;8.668;2023-10-13T07:28:53;14.07;;;5.13;;
15266;SDS011;7735;49.144;8.668;2023-10-13T07:31:21;10.37;;;4.87;;
15266;SDS011;7735;49.144;8.668;2023-10-13T07:33:52;13.03;;;7.40;;
15266;SDS011;7735;49.144;8.668;2023-10-13T07:36:19;11.87;;;6.67;;
15266;SDS011;7735;49.144;8.668;2023-10-13T07:38:53;10.43;;;6.60;;
15266;SDS011;7735;49.144;8.668;2023-10-13T07:41:45;10.60;;;5.50;;
15266;SDS011;7735;49.144;8.668;2023-10-13T07:44:16;7.37;;;4.80;;
15266;SDS011;7735;49.144;8.668;2023-10-13T07:46:46;11.67;;;5.33;;
15266;SDS011;7735;49.144;8.668;2023-10-13T07:49:14;11.03;;;4.90;;
15266;SDS011;7735;49.144;8.668;2023-10-13T07:51:40;8.67;;;4.73;;
15266;SDS011;7735;49.144;8.668;2023-10-13T07:54:10;7.80;;;4.80;;
15266;SDS011;7735;49.144;8.668;2023-10-13T07:56:38;7.07;;;4.40;;
15266;SDS011;7735;49.144;8.668;2023-10-13T07:59:05;7.33;;;4.70;;
15266;SDS011;7735;49.144;8.668;2023-10-13T08:01:34;7.93;;;4.20;;
15266;SDS011;7735;49.144;8.668;2023-10-13T08:04:02;8.27;;;4.33;;
15266;SDS011;7735;49.144;8.668;2023-10-13T08:06:36;8.10;;;4.63;;
15266;SDS011;7735;49.144;8.668;2023-10-13T08:09:05;7.87;;;4.50;;
15266;SDS011;7735;49.144;8.668;2023-10-13T08:11:34;7.57;;;4.43;;
15266;SDS011;7735;49.144;8.668;2023-10-13T08:14:02;8.53;;;3.93;;
15266;SDS011;7735;49.144;8.668;2023-10-13T08:16:37;6.60;;;3.77;;
15266;SDS011;7735;49.144;8.668;2023-10-13T08:19:20;8.37;;;5.07;;
15266;SDS011;7735;49.144;8.668;2023-10-13T08:21:52;6.67;;;3.93;;
15266;SDS011;7735;49.144;8.668;2023-10-13T08:24:22;12.13;;;4.73;;
15266;SDS011;7735;49.144;8.668;2023-10-13T08:26:53;7.70;;;4.60;;
15266;SDS011;7735;49.144;8.668;2023-10-13T08:29:37;7.03;;;4.10;;
15266;SDS011;7735;49.144;8.668;2023-10-13T08:32:40;8.23;;;3.90;;
15266;SDS011;7735;49.144;8.668;2023-10-13T08:35:21;7.63;;;3.97;;
15266;SDS011;7735;49.144;8.668;2023-10-13T08:38:19;7.40;;;4.10;;
15266;SDS011;7735;49.144;8.668;2023-10-13T08:40:53;8.80;;;4.27;;
15266;SDS011;7735;49.144;8.668;2023-10-13T08:43:47;6.60;;;3.73;;
15266;SDS011;7735;49.144;8.668;2023-10-13T08:46:16;6.10;;;3.70;;
15266;SDS011;7735;49.144;8.668;2023-10-13T08:48:55;14.20;;;5.33;;
15266;SDS011;7735;49.144;8.668;2023-10-13T08:51:35;5.73;;;3.37;;
15266;SDS011;7735;49.144;8.668;2023-10-13T08:54:14;8.93;;;3.97;;
15266;SDS011;7735;49.144;8.668;2023-10-13T08:56:58;6.67;;;3.90;;
15266;SDS011;7735;49.144;8.668;2023-10-13T08:59:32;9.30;;;4.37;;
15266;SDS011;7735;49.144;8.668;2023-10-13T09:02:03;5.20;;;3.47;;
15266;SDS011;7735;49.144;8.668;2023-10-13T09:04:42;7.37;;;4.03;;
15266;SDS011;7735;49.144;8.668;2023-10-13T09:07:10;5.33;;;3.70;;
15266;SDS011;7735;49.144;8.668;2023-10-13T09:09:47;9.00;;;5.07;;
15266;SDS011;7735;49.144;8.668;2023-10-13T09:12:36;9.23;;;3.93;;
15266;SDS011;7735;49.144;8.668;2023-10-13T09:15:28;11.17;;;4.20;;
15266;SDS011;7735;49.144;8.668;2023-10-13T09:18:23;6.03;;;3.47;;
15266;SDS011;7735;49.144;8.668;2023-10-13T09:21:07;6.97;;;3.40;;
15266;SDS011;7735;49.144;8.668;2023-10-13T09:23:56;7.93;;;3.27;;
15266;SDS011;7735;49.144;8.668;2023-10-13T09:26:36;8.47;;;3.60;;
15266;SDS011;7735;49.144;8.668;2023-10-13T09:29:04;7.00;;;3.63;;
15266;SDS011;7735;49.144;8.668;2023-10-13T09:31:39;10.47;;;4.30;;
15266;SDS011;7735;49.144;8.668;2023-10-13T09:34:10;7.20;;;3.73;;
15266;SDS011;7735;49.144;8.668;2023-10-13T09:36:35;9.20;;;3.80;;
15266;SDS011;7735;49.144;8.668;2023-10-13T09:39:03;9.43;;;3.63;;
15266;SDS011;7735;49.144;8.668;2023-10-13T09:41:38;8.60;;;3.90;;
15266;SDS011;7735;49.144;8.668;2023-10-13T09:44:06;4.43;;;3.13;;
15266;SDS011;7735;49.144;8.668;2023-10-13T09:46:33;10.50;;;3.27;;
15266;SDS011;7735;49.144;8.668;2023-10-13T09:49:12;8.83;;;3.37;;
15266;SDS011;7735;49.144;8.668;2023-10-13T09:51:40;6.67;;;3.10;;
15266;SDS011;7735;49.144;8.668;2023-10-13T09:54:14;7.93;;;3.13;;
15266;SDS011;7735;49.144;8.668;2023-10-13T09:56:46;8.57;;;3.43;;
15266;SDS011;7735;49.144;8.668;2023-10-13T09:59:18;6.93;;;3.30;;
15266;SDS011;7735;49.144;8.668;2023-10-13T10:01:48;7.73;;;3.40;;
15266;SDS011;7735;49.144;8.668;2023-10-13T10:04:16;7.10;;;3.00;;
15266;SDS011;7735;49.144;8.668;2023-10-13T10:06:51;6.60;;;3.27;;
15266;SDS011;7735;49.144;8.668;2023-10-13T10:09:25;8.03;;;3.03;;
15266;SDS011;7735;49.144;8.668;2023-10-13T10:15:04;6.33;;;2.93;;
15266;SDS011;7735;49.144;8.668;2023-10-13T10:17:39;9.70;;;3.07;;
15266;SDS011;7735;49.144;8.668;2023-10-13T10:20:07;7.27;;;3.07;;
15266;SDS011;7735;49.144;8.668;2023-10-13T10:22:54;4.70;;;2.80;;
15266;SDS011;7735;49.144;8.668;2023-10-13T10:25:29;9.33;;;2.70;;
15266;SDS011;7735;49.144;8.668;2023-10-13T10:28:00;6.90;;;3.03;;
15266;SDS011;7735;49.144;8.668;2023-10-13T10:30:30;7.90;;;2.97;;
15266;SDS011;7735;49.144;8.668;2023-10-13T10:32:59;6.43;;;3.40;;
15266;SDS011;7735;49.144;8.668;2023-10-13T10:35:32;5.07;;;3.10;;
15266;SDS011;7735;49.144;8.668;2023-10-13T10:38:06;11.60;;;3.40;;
15266;SDS011;7735;49.144;8.668;2023-10-13T10:40:51;5.17;;;2.77;;
15266;SDS011;7735;49.144;8.668;2023-10-13T10:43:22;4.60;;;2.90;;
15266;SDS011;7735;49.144;8.668;2023-10-13T10:45:51;7.97;;;2.83;;
15266;SDS011;7735;49.144;8.668;2023-10-13T10:48:24;8.57;;;2.90;;
15266;SDS011;7735;49.144;8.668;2023-10-13T10:50:56;4.67;;;3.03;;
15266;SDS011;7735;49.144;8.668;2023-10-13T10:53:24;5.90;;;2.60;;
15266;SDS011;7735;49.144;8.668;2023-10-13T10:56:05;5.63;;;2.97;;
15266;SDS011;7735;49.144;8.668;2023-10-13T10:58:33;5.03;;;2.93;;
15266;SDS011;7735;49.144;8.668;2023-10-13T11:01:09;7.60;;;2.80;;
15266;SDS011;7735;49.144;8.668;2023-10-13T11:03:37;4.70;;;2.83;;
15266;SDS011;7735;49.144;8.668;2023-10-13T11:06:07;10.87;;;3.73;;
15266;SDS011;7735;49.144;8.668;2023-10-13T11:08:42;9.03;;;3.47;;
15266;SDS011;7735;49.144;8.668;2023-10-13T11:11:17;9.47;;;3.40;;
15266;SDS011;7735;49.144;8.668;2023-10-13T11:13:55;7.70;;;3.10;;
15266;SDS011;7735;49.144;8.668;2023-10-13T11:16:44;8.70;;;3.27;;
15266;SDS011;7735;49.144;8.668;2023-10-13T11:19:15;6.10;;;3.00;;
15266;SDS011;7735;49.144;8.668;2023-10-13T11:21:42;8.13;;;3.00;;
15266;SDS011;7735;49.144;8.668;2023-10-13T11:24:09;5.53;;;2.70;;
15266;SDS011;7735;49.144;8.668;2023-10-13T11:26:38;8.23;;;3.20;;
15266;SDS011;7735;49.144;8.668;2023-10-13T11:29:14;8.70;;;3.30;;
15266;SDS011;7735;49.144;8.668;2023-10-13T11:31:44;7.40;;;2.60;;
15266;SDS011;7735;49.144;8.668;2023-10-13T11:34:11;7.53;;;3.63;;
15266;SDS011;7735;49.144;8.668;2023-10-13T11:36:41;6.87;;;2.90;;
15266;SDS011;7735;49.144;8.668;2023-10-13T11:39:08;8.07;;;3.17;;
15266;SDS011;7735;49.144;8.668;2023-10-13T11:41:33;6.13;;;3.30;;
15266;SDS011;7735;49.144;8.668;2023-10-13T11:44:05;6.53;;;2.83;;
15266;SDS011;7735;49.144;8.668;2023-10-13T11:46:38;5.27;;;2.60;;
15266;SDS011;7735;49.144;8.668;2023-10-13T11:49:20;8.27;;;2.93;;
15266;SDS011;7735;49.144;8.668;2023-10-13T11:51:57;6.60;;;2.80;;
15266;SDS011;7735;49.144;8.668;2023-10-13T11:54:34;6.03;;;2.90;;
15266;SDS011;7735;49.144;8.668;2023-10-13T11:57:06;9.97;;;3.40;;
15266;SDS011;7735;49.144;8.668;2023-10-13T11:59:35;9.93;;;3.10;;
15266;SDS011;7735;49.144;8.668;2023-10-13T12:02:09;6.73;;;3.30;;
15266;SDS011;7735;49.144;8.668;2023-10-13T12:04:54;6.23;;;3.00;;
15266;SDS011;7735;49.144;8.668;2023-10-13T12:07:22;10.43;;;3.57;;
15266;SDS011;7735;49.144;8.668;2023-10-13T12:09:52;9.30;;;3.40;;
15266;SDS011;7735;49.144;8.668;2023-10-13T12:12:31;5.33;;;2.80;;
15266;SDS011;7735;49.144;8.668;2023-10-13T12:15:07;8.10;;;3.23;;
15266;SDS011;7735;49.144;8.668;2023-10-13T12:17:50;5.83;;;2.80;;
15266;SDS011;7735;49.144;8.668;2023-10-13T12:20:16;7.23;;;2.90;;
15266;SDS011;7735;49.144;8.668;2023-10-13T12:22:57;6.30;;;2.93;;
15266;SDS011;7735;49.144;8.668;2023-10-13T12:25:34;7.20;;;3.10;;
15266;SDS011;7735;49.144;8.668;2023-10-13T12:28:19;10.15;;;3.30;;
15266;SDS011;7735;49.144;8.668;2023-10-13T12:30:49;12.60;;;3.40;;
15266;SDS011;7735;49.144;8.668;2023-10-13T12:33:17;5.37;;;2.73;;
15266;SDS011;7735;49.144;8.668;2023-10-13T12:35:50;14.90;;;3.57;;
15266;SDS011;7735;49.144;8.668;2023-10-13T12:38:28;5.27;;;2.80;;
15266;SDS011;7735;49.144;8.668;2023-10-13T12:41:15;6.70;;;2.60;;
15266;SDS011;7735;49.144;8.668;2023-10-13T12:44:00;8.03;;;3.50;;
15266;SDS011;7735;49.144;8.668;2023-10-13T12:46:46;5.87;;;2.90;;
15266;SDS011;7735;49.144;8.668;2023-10-13T12:49:32;6.47;;;2.80;;
15266;SDS011;7735;49.144;8.668;2023-10-13T12:52:23;5.33;;;3.23;;
15266;SDS011;7735;49.144;8.668;2023-10-13T12:54:51;5.47;;;3.13;;
15266;SDS011;7735;49.144;8.668;2023-10-13T12:57:26;8.20;;;3.10;;
15266;SDS011;7735;49.144;8.668;2023-10-13T12:59:58;5.63;;;3.10;;
15266;SDS011;7735;49.144;8.668;2023-10-13T13:02:40;5.47;;;2.93;;
15266;SDS011;7735;49.144;8.668;2023-10-13T13:05:07;5.43;;;2.90;;
15266;SDS011;7735;49.144;8.668;2023-10-13T13:07:39;6.87;;;3.40;;
15266;SDS011;7735;49.144;8.668;2023-10-13T13:10:12;8.13;;;3.03;;
15266;SDS011;7735;49.144;8.668;2023-10-13T13:12:48;7.83;;;2.83;;
15266;SDS011;7735;49.144;8.668;2023-10-13T13:15:14;13.10;;;3.43;;
15266;SDS011;7735;49.144;8.668;2023-10-13T13:17:42;7.30;;;2.97;;
15266;SDS011;7735;49.144;8.668;2023-10-13T13:20:09;7.10;;;3.07;;
15266;SDS011;7735;49.144;8.668;2023-10-13T13:22:51;6.80;;;2.90;;
15266;SDS011;7735;49.144;8.668;2023-10-13T13:25:19;6.73;;;3.27;;
15266;SDS011;7735;49.144;8.668;2023-10-13T13:27:50;4.53;;;2.92;;
15266;SDS011;7735;49.144;8.668;2023-10-13T13:30:17;7.80;;;3.43;;
15266;SDS011;7735;49.144;8.668;2023-10-13T13:32:47;6.20;;;2.93;;
15266;SDS011;7735;49.144;8.668;2023-10-13T13:35:13;4.47;;;2.90;;
15266;SDS011;7735;49.144;8.668;2023-10-13T13:37:43;4.30;;;2.63;;
15266;SDS011;7735;49.144;8.668;2023-10-13T13:40:10;7.00;;;2.90;;
15266;SDS011;7735;49.144;8.668;2023-10-13T13:42:40;7.67;;;3.00;;
15266;SDS011;7735;49.144;8.668;2023-10-13T13:45:11;5.53;;;3.03;;
15266;SDS011;7735;49.144;8.668;2023-10-13T13:47:47;7.40;;;2.83;;
15266;SDS011;7735;49.144;8.668;2023-10-13T13:50:18;8.23;;;3.50;;
15266;SDS011;7735;49.144;8.668;2023-10-13T13:52:49;7.17;;;3.30;;
15266;SDS011;7735;49.144;8.668;2023-10-13T13:55:18;7.57;;;3.20;;
15266;SDS011;7735;49.144;8.668;2023-10-13T13:57:45;5.40;;;2.73;;
15266;SDS011;7735;49.144;8.668;2023-10-13T14:00:12;4.93;;;2.93;;
15266;SDS011;7735;49.144;8.668;2023-10-13T14:02:43;5.57;;;2.80;;
15266;SDS011;7735;49.144;8.668;2023-10-13T14:05:14;6.37;;;3.10;;
15266;SDS011;7735;49.144;8.668;2023-10-13T14:07:41;1.70;;;1.47;;
15266;SDS011;7735;49.144;8.668;2023-10-13T14:10:13;11.07;;;3.07;;
15266;SDS011;7735;49.144;8.668;2023-10-13T14:12:43;7.72;;;2.80;;
15266;SDS011;7735;49.144;8.668;2023-10-13T14:15:09;6.33;;;3.10;;
15266;SDS011;7735;49.144;8.668;2023-10-13T14:17:45;9.47;;;3.10;;
15266;SDS011;7735;49.144;8.668;2023-10-13T14:20:15;5.90;;;2.80;;
15266;SDS011;7735;49.144;8.668;2023-10-13T14:22:53;6.20;;;2.65;;
15266;SDS011;7735;49.144;8.668;2023-10-13T14:25:22;6.57;;;2.80;;
15266;SDS011;7735;49.144;8.668;2023-10-13T14:28:03;9.73;;;3.07;;
15266;SDS011;7735;49.144;8.668;2023-10-13T14:30:33;6.70;;;3.03;;
15266;SDS011;7735;49.144;8.668;2023-10-13T14:33:08;5.38;;;2.85;;
15266;SDS011;7735;49.144;8.668;2023-10-13T14:35:37;4.20;;;2.65;;
15266;SDS011;7735;49.144;8.668;2023-10-13T14:38:13;6.63;;;3.33;;
15266;SDS011;7735;49.144;8.668;2023-10-13T14:40:39;6.93;;;3.20;;
15266;SDS011;7735;49.144;8.668;2023-10-13T14:43:06;6.93;;;2.70;;
15266;SDS011;7735;49.144;8.668;2023-10-13T14:45:34;5.93;;;2.92;;
15266;SDS011;7735;49.144;8.668;2023-10-13T14:48:01;7.33;;;2.70;;
15266;SDS011;7735;49.144;8.668;2023-10-13T14:50:30;7.10;;;3.07;;
15266;SDS011;7735;49.144;8.668;2023-10-13T14:53:08;6.13;;;3.10;;
15266;SDS011;7735;49.144;8.668;2023-10-13T14:55:44;6.60;;;3.17;;
15266;SDS011;7735;49.144;8.668;2023-10-13T14:58:22;9.07;;;3.27;;
15266;SDS011;7735;49.144;8.668;2023-10-13T15:00:51;6.75;;;2.45;;
15266;SDS011;7735;49.144;8.668;2023-10-13T15:03:19;7.37;;;2.70;;
15266;SDS011;7735;49.144;8.668;2023-10-13T15:05:47;5.63;;;2.90;;
15266;SDS011;7735;49.144;8.668;2023-10-13T15:08:15;8.05;;;2.88;;
15266;SDS011;7735;49.144;8.668;2023-10-13T15:10:43;4.27;;;2.57;;
15266;SDS011;7735;49.144;8.668;2023-10-13T15:13:10;6.00;;;2.90;;
15266;SDS011;7735;49.144;8.668;2023-10-13T15:15:36;9.33;;;3.00;;
15266;SDS011;7735;49.144;8.668;2023-10-13T15:18:04;6.80;;;3.00;;
15266;SDS011;7735;49.144;8.668;2023-10-13T15:20:31;6.57;;;3.22;;
15266;SDS011;7735;49.144;8.668;2023-10-13T15:22:57;4.28;;;2.45;;
15266;SDS011;7735;49.144;8.668;2023-10-13T15:25:27;4.17;;;2.90;;
15266;SDS011;7735;49.144;8.668;2023-10-13T15:28:04;5.30;;;2.60;;
15266;SDS011;7735;49.144;8.668;2023-10-13T15:30:34;3.50;;;2.50;;
15266;SDS011;7735;49.144;8.668;2023-10-13T15:33:09;9.03;;;2.97;;
15266;SDS011;7735;49.144;8.668;2023-10-13T15:35:37;5.63;;;3.33;;
15266;SDS011;7735;49.144;8.668;2023-10-13T15:38:04;4.80;;;2.50;;
15266;SDS011;7735;49.144;8.668;2023-10-13T15:40:33;6.47;;;2.63;;